Time;durP1;ratioP1;P1;durP2;ratioP2;P2;SDS_P1;SDS_P2;PMS_P1;PMS_P2;Temp;Humidity;BMP_temperature;BMP_pressure;BME280_temperature;BME280_humidity;BME280_pressure;Samples;Min_cycle;Max_cycle;Signal;HPM_P1;HPM_P2
2023/04/27 00:00:24;;;;;;;;;;;;;;;19.23;65.28;98669.84;2086778;28;20013;-47
2023/04/27 00:01:26;;;;;;;;;;;;;;;19.24;64.82;98674.19;2085911;28;20363;-43
2023/04/27 00:02:26;;;;;;;;;;;;;;;19.24;64.98;98673.38;2085817;28;20601;-44
2023/04/27 00:03:28;;;;;;;;;;;;;;;19.24;64.99;98676.88;2085881;28;19966;-48
2023/04/27 00:04:28;;;;;;;;;;;;;;;19.24;65.01;98679.56;2085092;28;19932;-46
2023/04/27 00:05:29;;;;;;;;;;;;;;;19.24;64.96;98671.50;2087307;28;19925;-47
2023/04/27 00:06:31;;;;;;;;;;;;;;;19.22;65.35;98673.56;2085671;28;19990;-43
2023/04/27 00:07:32;;;;;;;;;;;;;;;19.23;65.32;98674.41;2086136;28;19931;-43
2023/04/27 00:08:33;;;;;;;;;;;;;;;19.23;65.15;98669.84;2086642;28;19943;-47
2023/04/27 00:09:34;;;;;;;;;;;;;;;19.22;64.96;98670.88;2087553;28;19932;-46
2023/04/27 00:10:35;;;;;;;;;;;;;;;19.23;64.71;98669.03;2085441;28;19990;-44
2023/04/27 00:11:36;;;;;;;;;;;;;;;19.23;65.35;98669.03;2086376;28;19940;-46
2023/04/27 00:12:37;;;;;;;;;;;;;;;19.23;65.40;98672.53;2084754;28;20280;-47
2023/04/27 00:13:38;;;;;;;;;;;;;;;19.23;65.74;98677.94;2086513;28;19982;-44
2023/04/27 00:14:40;;;;;;;;;;;;;;;19.23;65.59;98672.53;2085428;28;19973;-47
2023/04/27 00:15:41;;;;;;;;;;;;;;;19.23;65.62;98669.84;2086622;28;19977;-45
2023/04/27 00:16:42;;;;;;;;;;;;;;;19.22;65.92;98670.06;2088125;28;19932;-43
2023/04/27 00:17:43;;;;;;;;;;;;;;;19.22;65.79;98673.56;2087452;28;19928;-45
2023/04/27 00:18:44;;;;;;;;;;;;;;;19.23;65.68;98669.03;2085966;28;20399;-43
2023/04/27 00:19:46;;;;;;;;;;;;;;;19.24;65.50;98670.69;2085060;28;19933;-47
2023/04/27 00:20:46;;;;;;;;;;;;;;;19.24;65.55;98668.81;2084101;28;20828;-44
2023/04/27 00:21:48;;;;;;;;;;;;;;;19.24;65.88;98668.00;2086149;28;19929;-43
2023/04/27 00:22:48;;;;;;;;;;;;;;;19.25;65.74;98654.34;2084118;28;19977;-47
2023/04/27 00:23:50;;;;;;;;;;;;;;;19.24;65.90;98663.44;2087492;28;20001;-43
2023/04/27 00:24:50;;;;;;;;;;;;;;;19.24;65.89;98660.75;2086636;28;19968;-43
2023/04/27 00:25:52;;;;;;;;;;;;;;;19.23;66.04;98659.09;2085906;28;19940;-44
2023/04/27 00:26:52;;;;;;;;;;;;;;;19.24;65.89;98655.38;2087361;28;20005;-45
2023/04/27 00:27:54;;;;;;;;;;;;;;;19.23;65.89;98655.59;2083844;28;19925;-45
2023/04/27 00:28:55;;;;;;;;;;;;;;;19.24;65.65;98663.44;2086807;28;20015;-46
2023/04/27 00:29:57;;;;;;;;;;;;;;;19.24;65.67;98657.22;2088379;28;19935;-44
2023/04/27 00:30:58;;;;;;;;;;;;;;;19.22;66.00;98660.13;2088963;28;20461;-47
2023/04/27 00:31:59;;;;;;;;;;;;;;;19.21;66.71;98650.41;2088785;28;19932;-45
2023/04/27 00:33:00;;;;;;;;;;;;;;;19.23;66.29;98655.59;2088463;28;19969;-47
2023/04/27 00:34:01;;;;;;;;;;;;;;;19.22;66.41;98660.13;2087365;28;19978;-46
2023/04/27 00:35:02;;;;;;;;;;;;;;;19.24;66.22;98657.22;2087377;28;19953;-45
2023/04/27 00:36:04;;;;;;;;;;;;;;;19.23;65.84;98655.59;2088959;28;19959;-45
2023/04/27 00:37:04;;;;;;;;;;;;;;;19.23;65.92;98656.41;2089094;28;19928;-44
2023/04/27 00:38:05;;;;;;;;;;;;;;;19.22;66.33;98652.06;2087308;28;19986;-46
2023/04/27 00:39:06;;;;;;;;;;;;;;;19.23;66.85;98655.59;2086269;28;19947;-45
2023/04/27 00:40:08;;;;;;;;;;;;;;;19.24;66.77;98651.84;2088842;28;19925;-45
2023/04/27 00:41:08;;;;;;;;;;;;;;;19.22;66.66;98648.53;2087458;28;19933;-46
2023/04/27 00:42:12;;;;;;;;;;;;;;;19.23;65.92;98655.59;2087482;28;19925;-47
2023/04/27 00:43:13;;;;;;;;;;;;;;;19.22;66.38;98648.53;2088081;28;20359;-45
2023/04/27 00:44:22;;;;;;;;;;;;;;;19.24;65.99;98654.53;2088158;28;19936;-47
2023/04/27 00:45:23;;;;;;;;;;;;;;;19.22;66.84;98649.38;2085844;28;19981;-44
2023/04/27 00:46:26;;;;;;;;;;;;;;;19.23;66.63;98660.97;2087352;28;19929;-47
2023/04/27 00:47:27;;;;;;;;;;;;;;;19.23;67.36;98655.59;2087864;28;19929;-46
2023/04/27 00:48:28;;;;;;;;;;;;;;;19.22;66.72;98651.22;2086530;28;19971;-47
2023/04/27 00:49:29;;;;;;;;;;;;;;;19.20;66.89;98651.44;2088148;28;19936;-45
2023/04/27 00:50:31;;;;;;;;;;;;;;;19.22;66.62;98654.75;2087729;28;20252;-48
2023/04/27 00:51:31;;;;;;;;;;;;;;;19.22;66.49;98648.53;2088688;28;19990;-46
2023/04/27 00:52:33;;;;;;;;;;;;;;;19.20;66.86;98652.28;2087058;28;19962;-48
2023/04/27 00:53:35;;;;;;;;;;;;;;;19.21;66.75;98650.41;2087335;28;19929;-44
2023/04/27 00:54:36;;;;;;;;;;;;;;;19.20;66.71;98656.84;2085803;28;19974;-45
2023/04/27 00:55:37;;;;;;;;;;;;;;;19.20;66.79;98656.84;2087061;28;19924;-45
2023/04/27 00:56:38;;;;;;;;;;;;;;;19.21;66.66;98653.09;2088062;28;19970;-45
2023/04/27 00:57:39;;;;;;;;;;;;;;;19.21;66.41;98650.41;2088074;28;19940;-45
2023/04/27 00:58:40;;;;;;;;;;;;;;;19.20;66.92;98656.84;2087296;28;19928;-46
2023/04/27 00:59:40;;;;;;;;;;;;;;;19.21;66.84;98650.41;2087525;28;19928;-46
2023/04/27 01:00:43;;;;;;;;;;;;;;;19.20;66.67;98657.66;2089425;28;19997;-46
2023/04/27 01:01:44;;;;;;;;;;;;;;;19.19;66.27;98650.63;2085725;28;19932;-45
2023/04/27 01:02:47;;;;;;;;;;;;;;;19.22;66.23;98649.38;2086132;28;19949;-45
2023/04/27 01:03:48;;;;;;;;;;;;;;;19.20;67.14;98654.16;2087425;28;19949;-48
2023/04/27 01:04:50;;;;;;;;;;;;;;;19.19;66.59;98658.69;2087048;28;19972;-48
2023/04/27 01:05:52;;;;;;;;;;;;;;;19.19;66.51;98657.84;2087778;28;19976;-45
2023/04/27 01:06:53;;;;;;;;;;;;;;;19.20;66.43;98656.84;2087831;28;19929;-45
2023/04/27 01:07:54;;;;;;;;;;;;;;;19.20;66.59;98656.84;2087991;28;19929;-44
2023/04/27 01:08:55;;;;;;;;;;;;;;;19.19;66.84;98652.47;2087771;28;19929;-45
2023/04/27 01:09:56;;;;;;;;;;;;;;;19.19;66.25;98649.78;2086335;28;19983;-43
2023/04/27 01:10:57;;;;;;;;;;;;;;;19.19;66.45;98649.78;2085395;28;19932;-45
2023/04/27 01:11:57;;;;;;;;;;;;;;;19.19;66.70;98644.41;2086935;28;20520;-43
2023/04/27 01:12:59;;;;;;;;;;;;;;;19.19;66.79;98649.78;2088652;28;19941;-42
2023/04/27 01:14:02;;;;;;;;;;;;;;;19.17;66.71;98646.50;2086391;28;19954;-47
2023/04/27 01:15:04;;;;;;;;;;;;;;;19.18;66.70;98648.97;2086397;28;20419;-45
2023/04/27 01:16:06;;;;;;;;;;;;;;;19.19;66.57;98644.41;2086605;28;19929;-45
2023/04/27 01:17:07;;;;;;;;;;;;;;;19.18;67.22;98648.97;2087392;28;20405;-46
2023/04/27 01:18:08;;;;;;;;;;;;;;;19.18;66.64;98642.75;2086768;28;19932;-45
2023/04/27 01:19:10;;;;;;;;;;;;;;;19.18;66.32;98648.13;2087553;28;19928;-45
2023/04/27 01:20:10;;;;;;;;;;;;;;;19.18;66.87;98648.13;2087395;28;19993;-45
2023/04/27 01:21:12;;;;;;;;;;;;;;;19.17;66.72;98644.63;2087968;28;19933;-45
2023/04/27 01:22:14;;;;;;;;;;;;;;;19.17;66.92;98646.50;2087266;28;19975;-45
2023/04/27 01:23:16;;;;;;;;;;;;;;;19.19;66.71;98644.41;2088680;28;19937;-45
2023/04/27 01:24:17;;;;;;;;;;;;;;;19.19;66.45;98649.78;2087458;28;19928;-45
2023/04/27 01:25:19;;;;;;;;;;;;;;;19.18;66.99;98656.19;2087234;28;19924;-45
2023/04/27 01:26:19;;;;;;;;;;;;;;;19.18;66.96;98648.13;2088886;28;20291;-47
2023/04/27 01:27:20;;;;;;;;;;;;;;;19.18;66.38;98648.13;2084958;28;20015;-45
2023/04/27 01:28:21;;;;;;;;;;;;;;;19.16;66.45;98648.31;2089351;28;20608;-44
2023/04/27 01:29:22;;;;;;;;;;;;;;;19.17;66.79;98646.50;2086922;28;19955;-49
2023/04/27 01:30:23;;;;;;;;;;;;;;;19.16;66.60;98645.63;2087719;28;20667;-45
2023/04/27 01:31:24;;;;;;;;;;;;;;;19.17;66.68;98649.19;2087674;28;19936;-44
2023/04/27 01:32:25;;;;;;;;;;;;;;;19.19;66.32;98657.84;2087840;28;19990;-44
2023/04/27 01:33:27;;;;;;;;;;;;;;;19.17;66.71;98663.44;2087189;28;19928;-45
2023/04/27 01:34:27;;;;;;;;;;;;;;;19.15;66.58;98659.31;2086590;28;19933;-45
2023/04/27 01:35:28;;;;;;;;;;;;;;;19.15;66.42;98653.94;2085836;28;19928;-47
2023/04/27 01:36:30;;;;;;;;;;;;;;;19.16;66.38;98652.88;2088365;28;20812;-45
2023/04/27 01:37:32;;;;;;;;;;;;;;;19.15;66.34;98654.75;2086535;28;19964;-46
2023/04/27 01:38:34;;;;;;;;;;;;;;;19.17;66.62;98657.25;2086775;28;19929;-45
2023/04/27 01:39:36;;;;;;;;;;;;;;;19.16;66.64;98655.56;2076980;28;19933;-45
2023/04/27 01:40:36;;;;;;;;;;;;;;;19.16;66.57;98655.56;2080129;28;19972;-45
2023/04/27 01:41:38;;;;;;;;;;;;;;;19.15;66.56;98654.75;2077805;28;19936;-46
2023/04/27 01:42:38;;;;;;;;;;;;;;;19.15;66.89;98662.81;2079115;28;19955;-45
2023/04/27 01:43:40;;;;;;;;;;;;;;;19.16;66.65;98663.63;2078923;28;19959;-46
2023/04/27 01:44:41;;;;;;;;;;;;;;;19.15;67.10;98667.38;2078344;28;19925;-45
2023/04/27 01:45:42;;;;;;;;;;;;;;;19.15;67.16;98662.00;2077175;28;19933;-46
2023/04/27 01:46:43;;;;;;;;;;;;;;;19.15;67.04;98665.50;2079202;28;19937;-46
2023/04/27 01:47:44;;;;;;;;;;;;;;;19.16;66.60;98660.94;2078985;28;20739;-48
2023/04/27 01:48:45;;;;;;;;;;;;;;;19.16;66.64;98664.47;2076890;28;20979;-45
2023/04/27 01:49:46;;;;;;;;;;;;;;;19.15;66.74;98659.31;2076993;28;19933;-45
2023/04/27 01:50:47;;;;;;;;;;;;;;;19.15;66.54;98664.69;2080951;28;19933;-44
2023/04/27 01:51:48;;;;;;;;;;;;;;;19.16;66.88;98663.63;2077775;28;19933;-45
2023/04/27 01:52:49;;;;;;;;;;;;;;;19.15;66.84;98662.81;2078985;28;19933;-44
2023/04/27 01:53:51;;;;;;;;;;;;;;;19.14;66.72;98655.78;2080198;28;19924;-46
2023/04/27 01:54:52;;;;;;;;;;;;;;;19.14;66.48;98665.72;2077156;28;19983;-45
2023/04/27 01:55:53;;;;;;;;;;;;;;;19.15;66.83;98664.69;2080327;28;19937;-46
2023/04/27 01:56:54;;;;;;;;;;;;;;;19.15;66.62;98665.50;2078649;28;19979;-45
2023/04/27 01:57:55;;;;;;;;;;;;;;;19.16;66.99;98669.84;2076927;28;19932;-45
2023/04/27 01:58:56;;;;;;;;;;;;;;;19.15;66.73;98664.69;2080192;28;20295;-45
2023/04/27 01:59:57;;;;;;;;;;;;;;;19.15;66.58;98659.31;2078537;28;19960;-47
2023/04/27 02:00:58;;;;;;;;;;;;;;;19.16;66.74;98669.00;2078076;28;19929;-45
2023/04/27 02:01:59;;;;;;;;;;;;;;;19.16;66.76;98671.69;2079319;28;19975;-45
2023/04/27 02:03:00;;;;;;;;;;;;;;;19.15;66.82;98664.69;2078085;28;20488;-44
2023/04/27 02:04:01;;;;;;;;;;;;;;;19.15;66.91;98672.75;2080466;28;19924;-45
2023/04/27 02:05:02;;;;;;;;;;;;;;;19.14;66.55;98668.41;2077571;28;20389;-45
2023/04/27 02:06:04;;;;;;;;;;;;;;;19.14;67.04;98668.41;2078548;28;19975;-45
2023/04/27 02:07:05;;;;;;;;;;;;;;;19.13;66.72;98670.25;2079461;28;19990;-45
2023/04/27 02:08:07;;;;;;;;;;;;;;;19.14;66.17;98669.25;2077202;28;19983;-45
2023/04/27 02:09:09;;;;;;;;;;;;;;;19.13;66.75;98670.25;2076381;28;19929;-46
2023/04/27 02:10:10;;;;;;;;;;;;;;;19.15;67.37;98670.06;2079292;28;20399;-45
2023/04/27 02:11:11;;;;;;;;;;;;;;;19.13;67.16;98666.75;2077337;28;19928;-46
2023/04/27 02:12:12;;;;;;;;;;;;;;;19.13;66.78;98666.75;2077471;28;19990;-46
2023/04/27 02:13:13;;;;;;;;;;;;;;;19.13;67.16;98664.88;2076547;28;19937;-46
2023/04/27 02:14:15;;;;;;;;;;;;;;;19.12;66.36;98665.09;2078103;28;19929;-45
2023/04/27 02:15:15;;;;;;;;;;;;;;;19.13;66.68;98661.38;2075191;28;19932;-45
2023/04/27 02:16:17;;;;;;;;;;;;;;;19.15;66.78;98672.75;2076173;28;19984;-45
2023/04/27 02:17:17;;;;;;;;;;;;;;;19.14;66.16;98663.03;2076888;28;19990;-45
2023/04/27 02:18:19;;;;;;;;;;;;;;;19.14;66.80;98671.09;2078591;28;19933;-45
2023/04/27 02:19:20;;;;;;;;;;;;;;;19.13;66.61;98674.81;2075606;28;19937;-44
2023/04/27 02:20:22;;;;;;;;;;;;;;;19.13;67.07;98670.25;2076904;28;19929;-45
2023/04/27 02:21:22;;;;;;;;;;;;;;;19.13;66.56;98667.56;2084480;28;19928;-45
2023/04/27 02:22:23;;;;;;;;;;;;;;;19.13;67.07;98664.88;2086743;28;21174;-45
2023/04/27 02:23:24;;;;;;;;;;;;;;;19.14;67.32;98663.88;2085231;28;19924;-45
2023/04/27 02:24:27;;;;;;;;;;;;;;;19.13;67.51;98664.06;2084140;28;20432;-45
2023/04/27 02:25:27;;;;;;;;;;;;;;;19.12;67.32;98662.41;2085692;28;19928;-45
2023/04/27 02:26:29;;;;;;;;;;;;;;;19.13;67.43;98662.19;2085514;28;19929;-45
2023/04/27 02:27:29;;;;;;;;;;;;;;;19.12;67.08;98663.22;2085064;28;19936;-45
2023/04/27 02:28:31;;;;;;;;;;;;;;;19.10;67.66;98662.59;2088127;28;19928;-45
2023/04/27 02:29:31;;;;;;;;;;;;;;;19.12;66.68;98665.09;2085384;28;19939;-45
2023/04/27 02:30:33;;;;;;;;;;;;;;;19.12;67.25;98665.91;2088518;28;20027;-45
2023/04/27 02:31:33;;;;;;;;;;;;;;;19.13;67.11;98661.38;2085300;28;19925;-45
2023/04/27 02:32:35;;;;;;;;;;;;;;;19.13;67.11;98662.19;2084604;28;19981;-45
2023/04/27 02:33:35;;;;;;;;;;;;;;;19.14;66.84;98660.34;2084546;28;20387;-45
2023/04/27 02:34:37;;;;;;;;;;;;;;;19.13;67.29;98661.38;2085223;28;19932;-46
2023/04/27 02:35:37;;;;;;;;;;;;;;;19.12;67.38;98659.72;2081918;28;19933;-45
2023/04/27 02:36:39;;;;;;;;;;;;;;;19.11;67.24;98656.22;2086369;28;19955;-44
2023/04/27 02:37:39;;;;;;;;;;;;;;;19.11;67.42;98658.06;2086875;28;20047;-45
2023/04/27 02:38:41;;;;;;;;;;;;;;;19.11;66.83;98658.91;2087199;28;19932;-45
2023/04/27 02:39:43;;;;;;;;;;;;;;;19.12;66.97;98655.16;2084618;28;20416;-44
2023/04/27 02:40:44;;;;;;;;;;;;;;;19.13;66.42;98661.38;2086411;28;19964;-44
2023/04/27 02:41:44;;;;;;;;;;;;;;;19.10;67.62;98659.91;2084733;28;19937;-45
2023/04/27 02:42:46;;;;;;;;;;;;;;;19.11;67.03;98660.75;2087623;28;19936;-44
2023/04/27 02:43:46;;;;;;;;;;;;;;;19.10;67.11;98657.22;2084269;28;19932;-45
2023/04/27 02:44:48;;;;;;;;;;;;;;;19.10;67.19;98657.22;2086315;28;20540;-46
2023/04/27 02:45:48;;;;;;;;;;;;;;;19.10;67.37;98656.41;2084785;28;20033;-45
2023/04/27 02:46:50;;;;;;;;;;;;;;;19.12;67.22;98654.34;2085378;28;19928;-45
2023/04/27 02:47:50;;;;;;;;;;;;;;;19.10;67.33;98657.22;2083745;28;19970;-46
2023/04/27 02:48:52;;;;;;;;;;;;;;;19.09;67.05;98654.75;2086210;28;19989;-47
2023/04/27 02:49:52;;;;;;;;;;;;;;;19.10;67.31;98651.03;2084678;28;19936;-46
2023/04/27 02:50:54;;;;;;;;;;;;;;;19.10;67.72;98656.41;2086258;28;19937;-47
2023/04/27 02:51:55;;;;;;;;;;;;;;;19.09;67.09;98654.75;2084890;28;19929;-49
2023/04/27 02:52:57;;;;;;;;;;;;;;;19.08;67.19;98659.28;2086677;28;20027;-48
2023/04/27 02:53:57;;;;;;;;;;;;;;;19.09;67.42;98657.44;2087380;28;20291;-48
2023/04/27 02:55:00;;;;;;;;;;;;;;;19.09;67.22;98654.75;2086195;28;19979;-48
2023/04/27 02:56:00;;;;;;;;;;;;;;;19.10;66.94;98661.78;2086738;28;19929;-46
2023/04/27 02:57:02;;;;;;;;;;;;;;;19.09;66.69;98657.44;2084723;28;19974;-50
2023/04/27 02:58:02;;;;;;;;;;;;;;;19.08;67.30;98661.97;2086757;28;19969;-49
2023/04/27 02:59:04;;;;;;;;;;;;;;;19.07;66.79;98660.34;2087879;28;20341;-47
2023/04/27 03:00:05;;;;;;;;;;;;;;;19.07;67.38;98659.50;2088026;28;20452;-45
2023/04/27 03:01:07;;;;;;;;;;;;;;;19.07;66.49;98659.50;2084027;28;19925;-46
2023/04/27 03:02:07;;;;;;;;;;;;;;;19.07;67.28;98668.41;2084194;28;20849;-48
2023/04/27 03:03:09;;;;;;;;;;;;;;;19.05;66.97;98665.06;2084628;28;19936;-49
2023/04/27 03:04:09;;;;;;;;;;;;;;;19.08;67.07;98669.22;2084468;28;20272;-45
2023/04/27 03:05:11;;;;;;;;;;;;;;;19.07;66.44;98668.41;2086712;28;19935;-48
2023/04/27 03:06:12;;;;;;;;;;;;;;;19.06;67.07;98661.38;2085095;28;20008;-49
2023/04/27 03:07:13;;;;;;;;;;;;;;;19.06;66.56;98668.63;2084860;28;19951;-46
2023/04/27 03:08:14;;;;;;;;;;;;;;;19.07;67.40;98667.56;2085106;28;20010;-47
2023/04/27 03:09:15;;;;;;;;;;;;;;;19.06;67.12;98666.75;2084073;28;20093;-48
2023/04/27 03:10:18;;;;;;;;;;;;;;;19.05;67.60;98665.06;2085303;28;20255;-51
2023/04/27 03:11:19;;;;;;;;;;;;;;;19.05;67.61;98670.44;2083878;28;19958;-45
2023/04/27 03:12:20;;;;;;;;;;;;;;;19.07;66.71;98673.78;2084898;28;20989;-49
2023/04/27 03:13:21;;;;;;;;;;;;;;;19.06;67.36;98668.63;2087114;28;19977;-45
2023/04/27 03:14:22;;;;;;;;;;;;;;;19.05;67.69;98665.06;2085321;28;19929;-46
2023/04/27 03:15:23;;;;;;;;;;;;;;;19.05;66.94;98670.44;2084381;28;19928;-49
2023/04/27 03:16:24;;;;;;;;;;;;;;;19.06;67.07;98676.69;2085292;28;20502;-47
2023/04/27 03:17:25;;;;;;;;;;;;;;;19.05;67.39;98675.00;2084577;28;20346;-50
2023/04/27 03:18:26;;;;;;;;;;;;;;;19.05;66.61;98669.63;2086353;28;19929;-49
2023/04/27 03:19:27;;;;;;;;;;;;;;;19.07;66.84;98678.31;2086136;28;20058;-49
2023/04/27 03:20:28;;;;;;;;;;;;;;;19.05;67.16;98680.38;2084361;28;20360;-49
2023/04/27 03:21:29;;;;;;;;;;;;;;;19.04;67.34;98679.56;2085250;28;19924;-48
2023/04/27 03:22:30;;;;;;;;;;;;;;;19.06;66.79;98674.00;2086461;28;19932;-45
2023/04/27 03:23:31;;;;;;;;;;;;;;;19.05;66.34;98672.31;2086418;28;20367;-47
2023/04/27 03:24:33;;;;;;;;;;;;;;;19.05;67.02;98681.22;2085116;28;19924;-48
2023/04/27 03:25:34;;;;;;;;;;;;;;;19.05;67.25;98685.75;2086094;28;19929;-51
2023/04/27 03:26:36;;;;;;;;;;;;;;;19.03;67.47;98677.06;2084342;28;19971;-44
2023/04/27 03:27:36;;;;;;;;;;;;;;;19.04;67.02;98673.38;2083577;28;19933;-48
2023/04/27 03:28:38;;;;;;;;;;;;;;;19.03;66.88;98683.28;2082646;28;20380;-51
2023/04/27 03:29:39;;;;;;;;;;;;;;;19.01;67.07;98684.53;2084701;28;19999;-48
2023/04/27 03:30:40;;;;;;;;;;;;;;;19.02;66.74;98687.00;2085747;28;19936;-45
2023/04/27 03:31:41;;;;;;;;;;;;;;;19.02;67.22;98681.63;2085519;28;19932;-50
2023/04/27 03:32:42;;;;;;;;;;;;;;;19.01;67.40;98681.84;2085540;28;20920;-47
2023/04/27 03:33:44;;;;;;;;;;;;;;;19.02;67.03;98676.25;2083510;28;19935;-50
2023/04/27 03:34:45;;;;;;;;;;;;;;;19.02;67.03;98681.63;2084145;28;19975;-48
2023/04/27 03:35:54;;;;;;;;;;;;;;;19.03;66.63;98679.75;2086825;28;19943;-48
2023/04/27 03:36:56;;;;;;;;;;;;;;;19.03;67.09;98679.75;2084179;28;19932;-47
2023/04/27 03:37:58;;;;;;;;;;;;;;;19.01;67.25;98682.66;2086329;28;20010;-48
2023/04/27 03:38:58;;;;;;;;;;;;;;;19.00;67.08;98685.53;2085170;28;20322;-51
2023/04/27 03:39:59;;;;;;;;;;;;;;;19.01;67.40;98684.53;2077413;28;19932;-52
2023/04/27 03:41:01;;;;;;;;;;;;;;;19.00;66.78;98683.72;2084997;28;19978;-51
2023/04/27 03:42:03;;;;;;;;;;;;;;;19.03;66.13;98687.81;2086050;28;20039;-50
2023/04/27 03:43:03;;;;;;;;;;;;;;;19.02;66.65;98683.47;2085103;28;19937;-45
2023/04/27 03:44:05;;;;;;;;;;;;;;;19.01;66.78;98685.34;2086366;28;19928;-48
2023/04/27 03:45:06;;;;;;;;;;;;;;;19.00;67.01;98682.84;2085023;28;20031;-49
2023/04/27 03:46:08;;;;;;;;;;;;;;;19.00;67.05;98686.41;2084653;28;19962;-50
2023/04/27 03:47:09;;;;;;;;;;;;;;;18.99;67.03;98682.03;2086495;28;19929;-45
2023/04/27 03:48:10;;;;;;;;;;;;;;;19.00;67.06;98680.16;2084062;28;20980;-46
2023/04/27 03:49:11;;;;;;;;;;;;;;;18.98;67.11;98683.06;2085437;28;19978;-49
2023/04/27 03:50:12;;;;;;;;;;;;;;;18.97;67.20;98682.25;2087945;28;20492;-47
2023/04/27 03:51:13;;;;;;;;;;;;;;;18.98;67.56;98689.28;2085584;28;21039;-48
2023/04/27 03:52:15;;;;;;;;;;;;;;;18.98;67.12;98680.38;2085772;28;19978;-46
2023/04/27 03:53:15;;;;;;;;;;;;;;;18.96;67.24;98694.03;2085471;28;19928;-48
2023/04/27 03:54:17;;;;;;;;;;;;;;;18.97;67.22;98687.63;2083911;28;19928;-48
2023/04/27 03:55:17;;;;;;;;;;;;;;;18.97;67.09;98687.63;2086458;28;19993;-49
2023/04/27 03:56:20;;;;;;;;;;;;;;;18.96;67.05;98682.44;2086613;28;19936;-47
2023/04/27 03:57:21;;;;;;;;;;;;;;;18.98;67.21;98691.13;2085692;28;20050;-49
2023/04/27 03:58:22;;;;;;;;;;;;;;;18.97;66.73;98684.94;2088313;28;19946;-47
2023/04/27 03:59:23;;;;;;;;;;;;;;;18.97;66.67;98684.94;2084351;28;19932;-46
2023/04/27 04:00:24;;;;;;;;;;;;;;;18.97;67.18;98684.09;2086159;28;19993;-45
2023/04/27 04:01:25;;;;;;;;;;;;;;;18.95;67.12;98687.00;2087074;28;19924;-48
2023/04/27 04:02:26;;;;;;;;;;;;;;;18.95;66.98;98686.19;2085203;28;21040;-49
2023/04/27 04:03:26;;;;;;;;;;;;;;;18.95;67.46;98686.19;2087627;28;20508;-47
2023/04/27 04:04:28;;;;;;;;;;;;;;;18.94;67.42;98684.50;2085186;28;19941;-46
2023/04/27 04:05:29;;;;;;;;;;;;;;;18.93;67.48;98685.53;2085543;28;19986;-50
2023/04/27 04:06:31;;;;;;;;;;;;;;;18.94;67.21;98690.72;2085779;28;19937;-45
2023/04/27 04:07:31;;;;;;;;;;;;;;;18.93;66.90;98682.84;2085715;28;19935;-48
2023/04/27 04:08:33;;;;;;;;;;;;;;;18.93;66.90;98686.38;2086810;28;20622;-49
2023/04/27 04:09:33;;;;;;;;;;;;;;;18.94;67.07;98689.88;2087473;28;19974;-48
2023/04/27 04:10:34;;;;;;;;;;;;;;;18.95;66.98;98686.19;2085024;28;19995;-44
2023/04/27 04:11:36;;;;;;;;;;;;;;;18.94;66.62;98688.03;2087632;28;19936;-45
2023/04/27 04:12:38;;;;;;;;;;;;;;;18.93;67.33;98688.22;2086790;28;19929;-51
2023/04/27 04:13:38;;;;;;;;;;;;;;;18.92;66.88;98692.78;2085667;28;20679;-46
2023/04/27 04:14:40;;;;;;;;;;;;;;;18.91;66.88;98691.09;2087540;28;19924;-51
2023/04/27 04:15:40;;;;;;;;;;;;;;;18.91;66.71;98690.28;2087591;28;20400;-49
2023/04/27 04:16:41;;;;;;;;;;;;;;;18.92;67.61;98691.97;2087097;28;19929;-47
2023/04/27 04:17:42;;;;;;;;;;;;;;;18.92;67.58;98692.78;2085263;28;20490;-46
2023/04/27 04:18:43;;;;;;;;;;;;;;;18.93;67.46;98704.34;2085620;28;19982;-52
2023/04/27 04:19:44;;;;;;;;;;;;;;;18.93;67.09;98691.75;2086942;28;19982;-48
2023/04/27 04:20:45;;;;;;;;;;;;;;;18.94;66.96;98697.94;2085999;28;21390;-48
2023/04/27 04:21:46;;;;;;;;;;;;;;;18.94;66.98;98701.47;2086354;28;20478;-50
2023/04/27 04:22:47;;;;;;;;;;;;;;;18.94;66.94;98701.47;2086079;28;19924;-50
2023/04/27 04:23:48;;;;;;;;;;;;;;;18.94;66.39;98709.53;2086896;28;20006;-49
2023/04/27 04:24:50;;;;;;;;;;;;;;;18.92;66.93;98702.72;2086637;28;20459;-49
2023/04/27 04:25:50;;;;;;;;;;;;;;;18.91;66.75;98712.59;2085520;28;19928;-46
2023/04/27 04:26:53;;;;;;;;;;;;;;;18.91;66.71;98717.97;2086990;28;20024;-44
2023/04/27 04:27:53;;;;;;;;;;;;;;;18.91;67.13;98717.16;2085783;28;19977;-49
2023/04/27 04:28:56;;;;;;;;;;;;;;;18.88;66.54;98710.34;2084493;28;19929;-46
2023/04/27 04:29:59;;;;;;;;;;;;;;;18.90;66.56;98716.34;2084582;28;19932;-52
2023/04/27 04:31:00;;;;;;;;;;;;;;;18.89;66.79;98720.06;2088276;28;19978;-44
2023/04/27 04:32:01;;;;;;;;;;;;;;;18.89;66.60;98721.94;2084471;28;19978;-49
2023/04/27 04:33:02;;;;;;;;;;;;;;;18.88;66.77;98726.47;2086625;27;19975;-47
2023/04/27 04:34:03;;;;;;;;;;;;;;;18.88;66.44;98723.78;2086014;28;19931;-46
2023/04/27 04:35:05;;;;;;;;;;;;;;;18.89;66.48;98730.00;2079523;28;20413;-49
2023/04/27 04:36:06;;;;;;;;;;;;;;;18.85;66.89;98726.88;2082856;28;19935;-47
2023/04/27 04:37:08;;;;;;;;;;;;;;;18.84;66.63;98727.91;2084179;28;19929;-50
2023/04/27 04:38:08;;;;;;;;;;;;;;;18.87;66.27;98726.69;2086277;28;19928;-44
2023/04/27 04:39:11;;;;;;;;;;;;;;;18.87;66.28;98722.13;2084658;28;19997;-46
2023/04/27 04:40:12;;;;;;;;;;;;;;;18.92;66.65;98725.03;2085303;28;19928;-52
2023/04/27 04:41:14;;;;;;;;;;;;;;;18.92;66.55;98729.59;2085777;28;19929;-49
2023/04/27 04:42:16;;;;;;;;;;;;;;;18.99;66.51;98722.34;2086330;28;19924;-47
2023/04/27 04:43:17;;;;;;;;;;;;;;;19.10;66.41;98723.63;2089344;28;20353;-51
2023/04/27 04:44:19;;;;;;;;;;;;;;;19.08;66.39;98722.97;2088251;28;20002;-50
2023/04/27 04:45:20;;;;;;;;;;;;;;;19.07;66.63;98727.53;2082935;28;19939;-46
2023/04/27 04:46:21;;;;;;;;;;;;;;;19.04;66.48;98725.25;2086975;28;19981;-47
2023/04/27 04:47:22;;;;;;;;;;;;;;;18.98;66.71;98732.28;2082764;28;20543;-48
2023/04/27 04:48:23;;;;;;;;;;;;;;;18.94;66.61;98728.34;2086898;28;19937;-50
2023/04/27 04:49:24;;;;;;;;;;;;;;;18.93;66.48;98726.69;2085214;28;19925;-49
2023/04/27 04:50:24;;;;;;;;;;;;;;;18.93;66.46;98732.06;2088223;28;19931;-52
2023/04/27 04:51:26;;;;;;;;;;;;;;;18.90;66.48;98727.09;2086954;28;20582;-52
2023/04/27 04:52:26;;;;;;;;;;;;;;;18.87;66.60;98716.75;2086191;28;20428;-45
2023/04/27 04:53:28;;;;;;;;;;;;;;;18.90;66.29;98728.97;2085642;28;19982;-50
2023/04/27 04:54:28;;;;;;;;;;;;;;;18.90;66.39;98731.63;2082484;28;20288;-45
2023/04/27 04:55:30;;;;;;;;;;;;;;;18.89;66.29;98730.81;2086369;28;19935;-49
2023/04/27 04:56:30;;;;;;;;;;;;;;;18.90;66.35;98739.72;2083202;28;19933;-44
2023/04/27 04:57:33;;;;;;;;;;;;;;;18.88;66.52;98736.38;2085412;28;19932;-49
2023/04/27 04:58:33;;;;;;;;;;;;;;;18.87;66.40;98732.88;2084234;28;20523;-49
2023/04/27 04:59:35;;;;;;;;;;;;;;;18.85;66.53;98734.94;2085101;28;19986;-50
2023/04/27 05:00:35;;;;;;;;;;;;;;;18.84;66.76;98737.84;2082910;28;19932;-48
2023/04/27 05:01:37;;;;;;;;;;;;;;;18.84;66.11;98735.97;2080732;28;19967;-50
2023/04/27 05:02:37;;;;;;;;;;;;;;;18.83;66.33;98739.66;2083292;28;19929;-47
2023/04/27 05:03:39;;;;;;;;;;;;;;;18.83;66.04;98742.34;2087392;28;19929;-46
2023/04/27 05:04:39;;;;;;;;;;;;;;;18.84;66.59;98740.53;2084519;28;19932;-50
2023/04/27 05:05:41;;;;;;;;;;;;;;;18.82;66.07;98739.88;2085670;28;20036;-50
2023/04/27 05:06:41;;;;;;;;;;;;;;;18.83;66.12;98739.66;2085257;28;19933;-43
2023/04/27 05:07:43;;;;;;;;;;;;;;;18.80;66.08;98742.75;2086608;28;19933;-48
2023/04/27 05:08:44;;;;;;;;;;;;;;;18.81;66.01;98744.44;2085728;28;20029;-46
2023/04/27 05:09:45;;;;;;;;;;;;;;;18.82;66.09;98742.56;2086153;28;19941;-52
2023/04/27 05:10:48;;;;;;;;;;;;;;;18.80;66.49;98748.13;2084196;28;19932;-46
2023/04/27 05:11:49;;;;;;;;;;;;;;;18.80;65.96;98755.38;2085498;28;19932;-47
2023/04/27 05:12:52;;;;;;;;;;;;;;;18.79;66.23;98753.72;2086902;28;19933;-48
2023/04/27 05:13:53;;;;;;;;;;;;;;;18.77;65.96;98753.91;2083492;28;20342;-49
2023/04/27 05:14:54;;;;;;;;;;;;;;;18.77;66.27;98761.97;2085182;28;19928;-45
2023/04/27 05:15:55;;;;;;;;;;;;;;;18.76;66.73;98760.34;2087235;28;19925;-51
2023/04/27 05:16:55;;;;;;;;;;;;;;;18.77;65.95;98753.91;2087759;28;19978;-50
2023/04/27 05:17:57;;;;;;;;;;;;;;;18.78;66.01;98760.13;2086293;28;19928;-48
2023/04/27 05:18:57;;;;;;;;;;;;;;;18.77;65.89;98759.28;2086097;28;19978;-43